ADDS METAR Data INFO
IDs: Format: Raw Decoded Include TAF

Data at: 1407 UTC 24 Feb 2018

KSZT 241355Z AUTO 01005KT 1 3/4SM -SN M05/M06 A2991 RMK AO2
KSZT 241335Z AUTO 02005KT 2SM -SN M05/M06 A2991 RMK AO2
KSZT 241315Z AUTO 01004KT 1 1/2SM -SN M06/M06 A2992 RMK AO2
KSZT 241255Z AUTO 00000KT 3SM -SN OVC020 M06/M06 A2993 RMK AO2
KSZT 241235Z AUTO 00000KT 7SM -SN OVC020 M06/M06 A2994 RMK AO2
KSZT 241215Z AUTO 00000KT 10SM -SN OVC020 M06/M06 A2995 RMK AO2
KSZT 241155Z AUTO 00000KT 10SM OVC020 M06/M06 A2996 RMK AO2
KSZT 241135Z AUTO 00000KT 10SM OVC020 M06/M06 A2997 RMK AO2
KSZT 241115Z AUTO 00000KT 10SM -SN OVC020 M06/M06 A2998 RMK AO2
KSZT 241055Z AUTO 00000KT 7SM -SN BKN020 OVC028 M06/M06 A2999 RMK AO2
KSZT 241035Z AUTO 00000KT 3SM -SN M06/M06 A3000 RMK AO2
KSZT 241015Z AUTO 15003KT 3SM -SN M06/M06 A3001 RMK AO2
KSZT 240955Z AUTO 19003KT 4SM -SN M05/M06 A3002 RMK AO2
KSZT 240935Z AUTO 00000KT 3SM -SN M06/M06 A3003 RMK AO2
KSZT 240915Z AUTO 00000KT 3SM -SN M05/M06 A3004 RMK AO2
KSZT 240855Z AUTO 22003KT 3SM -SN M06/M06 A3004 RMK AO2
KSZT 240835Z AUTO 00000KT 3SM -SN M06/M06 A3005 RMK AO2
KSZT 240815Z AUTO 00000KT 2SM -SN M05/M06 A3006 RMK AO2
KSZT 240755Z AUTO 21003KT 1 1/2SM -SN M05/M06 A3007 RMK AO2
KSZT 240735Z AUTO 21003KT 1SM SN M06/M06 A3007 RMK AO2
KSZT 240715Z AUTO 22004KT 1SM SN M06/M06 A3008 RMK AO2
KSZT 240655Z AUTO 21003KT 2SM -SN M06/M06 A3009 RMK AO2
KSZT 240635Z AUTO 22005KT 1 3/4SM -SN BKN011 OVC018 M06/M06 A3009 RMK AO2
KSZT 240615Z AUTO 21005KT 2SM -SN OVC013 M06/M06 A3010 RMK AO2
KSZT 240555Z AUTO 22005KT 1 1/2SM -SN SCT004 OVC013 M06/M06 A3011 RMK AO2
KSZT 240535Z AUTO 20004KT 1 3/4SM -SN OVC015 M06/M06 A3011 RMK AO2
KSZT 240515Z AUTO 21004KT 2 1/2SM -SN BKN019 OVC028 M06/M07 A3012 RMK AO2
KSZT 240455Z AUTO 21003KT 5SM -SN OVC030 M05/M07 A3013 RMK AO2
KSZT 240435Z AUTO 20005KT 7SM -SN OVC030 M05/M07 A3013 RMK AO2
KSZT 240415Z AUTO 21004KT 5SM -SN SCT014 SCT022 OVC028 M05/M07 A3014 RMK AO2
KSZT 240355Z AUTO 22005KT 7SM -SN SCT014 BKN020 BKN029 M05/M07 A3015 RMK AO2
KSZT 240335Z AUTO 20005KT 4SM -SN SCT015 SCT022 M05/M07 A3015 RMK AO2
KSZT 240315Z AUTO 22005KT 4SM -SN SCT012 BKN018 M05/M06 A3016 RMK AO2
KSZT 240255Z AUTO 21005KT 2 1/2SM -SN BKN016 OVC020 M05/M06 A3016 RMK AO2
KSZT 240235Z AUTO 21003KT 3SM -SN OVC016 M05/M06 A3016 RMK AO2
KSZT 240215Z AUTO 21004KT 2 1/2SM -SN BKN016 OVC021 M05/M07 A3016 RMK AO2
KSZT 240155Z AUTO 21003KT 2 1/2SM -SN OVC019 M05/M07 A3017 RMK AO2
KSZT 240135Z AUTO 20003KT 3SM -SN BKN022 OVC032 M05/M07 A3017 RMK AO2
KSZT 240115Z AUTO 21004KT 2 1/2SM -SN SCT010 SCT013 OVC020 M05/M07 A3017 RMK AO2
KSZT 240055Z AUTO 22004KT 1 1/4SM -SN BKN013 OVC020 M05/M07 A3018 RMK AO2
KSZT 240035Z AUTO 24005KT 1 3/4SM -SN OVC018 M05/M07 A3019 RMK AO2
KSZT 240015Z AUTO 24003KT 1 3/4SM -SN SCT016 OVC020 M05/M08 A3019 RMK AO2
KSZT 232355Z AUTO 25004KT 4SM -SN SCT025 OVC034 M05/M08 A3019 RMK AO2
KSZT 232335Z AUTO 24006KT 10SM SCT023 BKN034 OVC042 M04/M10 A3020 RMK AO2
KSZT 232315Z AUTO 25008KT 10SM SCT039 OVC048 M03/M12 A3021 RMK AO2
KSZT 232255Z AUTO 24006G14KT 10SM SCT045 OVC050 M03/M12 A3021 RMK AO2
KSZT 232235Z AUTO 24007KT 10SM OVC060 M03/M13 A3022 RMK AO2
KSZT 232215Z AUTO 22005KT 10SM BKN060 M03/M13 A3022 RMK AO2
KSZT 232155Z AUTO 23007KT 208V268 10SM SCT044 OVC050 M03/M13 A3023 RMK AO2
KSZT 232135Z AUTO 23005KT 10SM OVC048 M03/M12 A3023 RMK AO2
KSZT 232115Z AUTO 22005KT 10SM SCT039 OVC046 M03/M12 A3023 RMK AO2
KSZT 232055Z AUTO 24005KT 10SM SCT036 OVC046 M03/M11 A3023 RMK AO2
KSZT 232035Z AUTO 23008KT 10SM BKN048 OVC110 M03/M11 A3024 RMK AO2
KSZT 232015Z AUTO 20007KT 10SM OVC048 M03/M11 A3024 RMK AO2
KSZT 231955Z AUTO 22009KT 10SM OVC048 M04/M11 A3025 RMK AO2
KSZT 231935Z AUTO 23007KT 10SM OVC050 M05/M11 A3026 RMK AO2
KSZT 231915Z AUTO 21007KT 10SM OVC050 M05/M11 A3027 RMK AO2
KSZT 231855Z AUTO 23007KT 10SM OVC050 M05/M11 A3027 RMK AO2
KSZT 231835Z AUTO 20008KT 10SM OVC050 M06/M11 A3028 RMK AO2
KSZT 231815Z AUTO 15006KT 10SM OVC050 M06/M10 A3028 RMK AO2
KSZT 231755Z AUTO 16005KT 10SM OVC050 M06/M09 A3028 RMK AO2
KSZT 231735Z AUTO 16004KT 10SM OVC050 M09/M10 A3029 RMK AO2
KSZT 231715Z AUTO 00000KT 10SM M13/M15 A3029 RMK AO2
KSZT 231655Z AUTO 00000KT 10SM M14/M15 A3029 RMK AO2
KSZT 231635Z AUTO 00000KT 10SM M14/M16 A3030 RMK AO2
KSZT 231615Z AUTO 00000KT 10SM M15/M16 A3030 RMK AO2
KSZT 231555Z AUTO 00000KT 10SM M16/M17 A3030 RMK AO2
KSZT 231535Z AUTO 00000KT 10SM M16/M18 A3030 RMK AO2
KSZT 231515Z AUTO 00000KT 10SM M17/M18 A3029 RMK AO2
KSZT 231455Z AUTO 00000KT 10SM M16/M18 A3028 RMK AO2
KSZT 231435Z AUTO 00000KT 10SM M17/M18 A3028 RMK AO2
KSZT 231415Z AUTO 00000KT 10SM M16/M18 A3029 RMK AO2
KSZT 231355Z AUTO 00000KT 10SM M16/M17 A3029 RMK AO2
KSZT 231335Z AUTO 00000KT 10SM M16/M18 A3029 RMK AO2
KSZT 231315Z AUTO 00000KT 10SM M17/M18 A3029 RMK AO2
KSZT 231255Z AUTO 00000KT 10SM M17/M18 A3029 RMK AO2
KSZT 231235Z AUTO 00000KT 10SM M17/M20 A3029 RMK AO2
KSZT 231215Z AUTO 00000KT 10SM M18/M20 A3028 RMK AO2
KSZT 231155Z AUTO 00000KT 10SM M17/M19 A3028 RMK AO2
KSZT 231135Z AUTO 00000KT 10SM M17/M18 A3028 RMK AO2
KSZT 231115Z AUTO 00000KT 10SM M16/M17 A3028 RMK AO2
KSZT 231055Z AUTO 00000KT 10SM M16/M17 A3027 RMK AO2
KSZT 231035Z AUTO 00000KT 10SM M16/M17 A3027 RMK AO2
KSZT 231015Z AUTO 00000KT 10SM M15/M16 A3027 RMK AO2
KSZT 230955Z AUTO 00000KT 10SM M16/M17 A3027 RMK AO2
KSZT 230935Z AUTO 00000KT 10SM M16/M17 A3027 RMK AO2
KSZT 230915Z AUTO 00000KT 10SM M15/M16 A3027 RMK AO2
KSZT 230855Z AUTO 00000KT 10SM M16/M17 A3027 RMK AO2
KSZT 230835Z AUTO 00000KT 10SM M15/M15 A3027 RMK AO2
KSZT 230815Z AUTO 00000KT 10SM M14/M15 A3026 RMK AO2
KSZT 230755Z AUTO 00000KT 10SM M14/M15 A3026 RMK AO2
KSZT 230735Z AUTO 00000KT 10SM M13/M15 A3026 RMK AO2
KSZT 230715Z AUTO 00000KT 10SM M11/M13 A3025 RMK AO2
KSZT 230655Z AUTO 00000KT 7SM M12/M13 A3025 RMK AO2
KSZT 230635Z AUTO 00000KT 10SM M11/M14 A3024 RMK AO2
KSZT 230615Z AUTO 00000KT 10SM M10/M13 A3023 RMK AO2
KSZT 230555Z AUTO 00000KT 10SM M10/M13 A3023 RMK AO2
KSZT 230535Z AUTO 35003KT 10SM M07/M13 A3022 RMK AO2
KSZT 230515Z AUTO 35006KT 10SM M07/M13 A3022 RMK AO2
KSZT 230455Z AUTO 00000KT 10SM M07/M13 A3021 RMK AO2
KSZT 230435Z AUTO 03009KT 10SM M05/M13 A3021 RMK AO2
KSZT 230415Z AUTO 02010KT 10SM M05/M13 A3020 RMK AO2
KSZT 230355Z AUTO 03009KT 10SM M05/M12 A3020 RMK AO2
KSZT 230335Z AUTO 03010KT 10SM M04/M12 A3020 RMK AO2
KSZT 230315Z AUTO 03011KT 10SM M04/M12 A3020 RMK AO2
KSZT 230255Z AUTO 02010KT 10SM M03/M12 A3020 RMK AO2
KSZT 230235Z AUTO 02010KT 10SM M03/M12 A3020 RMK AO2
KSZT 230215Z AUTO 02010KT 10SM M03/M12 A3019 RMK AO2